Time,TemperatureF,DewpointF,PressureIn,WindDirection,WindDirectionDegrees,WindSpeedMPH,WindSpeedGustMPH,Humidity,HourlyPrecipIn,Conditions,Clouds,dailyrainin,SoftwareType,DateUTC
2013-03-04 00:08:00,57.6,43.0,29.77,ESE,119,13.0,15.0,59,0.00,,,0.00,weatherlink.com 1.10,2013-03-04 07:08:00,
2013-03-04 00:23:00,57.2,43.0,29.78,SSE,151,14.0,14.0,60,0.00,,,0.00,weatherlink.com 1.10,2013-03-04 07:23:00,
2013-03-04 00:38:00,56.6,43.0,29.77,SE,142,6.0,19.0,61,0.00,,,0.00,weatherlink.com 1.10,2013-03-04 07:38:00,
2013-03-04 00:53:00,56.2,44.0,29.77,SE,136,10.0,15.0,63,0.00,,,0.00,weatherlink.com 1.10,2013-03-04 07:53:00,
2013-03-04 01:08:00,56.0,44.0,29.77,South,187,9.0,16.0,64,0.00,,,0.00,weatherlink.com 1.10,2013-03-04 08:08:00,
2013-03-04 01:23:00,55.8,44.0,29.76,ESE,106,12.0,18.0,66,0.00,,,0.00,weatherlink.com 1.10,2013-03-04 08:23:00,
2013-03-04 01:38:00,55.5,45.0,29.75,SE,145,7.0,14.0,67,0.00,,,0.00,weatherlink.com 1.10,2013-03-04 08:38:00,
2013-03-04 01:53:00,55.3,45.0,29.75,SE,143,9.0,14.0,68,0.00,,,0.00,weatherlink.com 1.10,2013-03-04 08:53:00,
2013-03-04 02:08:00,55.2,46.0,29.73,SSE,153,8.0,16.0,70,0.00,,,0.00,weatherlink.com 1.10,2013-03-04 09:08:00,
2013-03-04 02:23:00,55.2,46.0,29.73,SE,138,14.0,15.0,70,0.00,,,0.00,weatherlink.com 1.10,2013-03-04 09:23:00,
2013-03-04 02:38:00,55.0,46.0,29.72,SE,134,7.0,12.0,71,0.00,,,0.00,weatherlink.com 1.10,2013-03-04 09:38:00,
2013-03-04 02:53:00,55.2,46.0,29.72,SE,134,5.0,13.0,72,0.00,,,0.00,weatherlink.com 1.10,2013-03-04 09:53:00,
2013-03-04 03:08:00,55.3,47.0,29.72,SE,145,6.0,14.0,73,0.00,,,0.00,weatherlink.com 1.10,2013-03-04 10:08:00,
2013-03-04 03:23:00,55.4,47.0,29.71,South,169,7.0,16.0,73,0.00,,,0.00,weatherlink.com 1.10,2013-03-04 10:23:00,
2013-03-04 03:39:00,55.5,47.0,29.72,SE,129,8.0,16.0,73,0.00,,,0.00,weatherlink.com 1.10,2013-03-04 10:39:00,
2013-03-04 03:53:00,55.4,47.0,29.72,SE,131,7.0,13.0,73,0.00,,,0.00,weatherlink.com 1.10,2013-03-04 10:53:00,
2013-03-04 04:08:00,55.0,47.0,29.72,SE,133,8.0,10.0,74,0.00,,,0.00,weatherlink.com 1.10,2013-03-04 11:08:00,
2013-03-04 04:22:00,55.1,47.0,29.72,SE,136,6.0,14.0,75,0.00,,,0.00,weatherlink.com 1.10,2013-03-04 11:22:00,
2013-03-04 04:37:00,55.2,47.0,29.72,SE,131,6.0,11.0,75,0.00,,,0.00,weatherlink.com 1.10,2013-03-04 11:37:00,
2013-03-04 04:52:00,55.5,48.0,29.72,SE,138,6.0,11.0,75,0.00,,,0.00,weatherlink.com 1.10,2013-03-04 11:52:00,
2013-03-04 05:07:00,55.7,48.0,29.72,SE,146,6.0,13.0,75,0.00,,,0.00,weatherlink.com 1.10,2013-03-04 12:07:00,
2013-03-04 05:23:00,56.0,48.0,29.72,SE,135,7.0,12.0,75,0.00,,,0.00,weatherlink.com 1.10,2013-03-04 12:23:00,
2013-03-04 05:38:00,56.1,49.0,29.71,SSE,166,9.0,14.0,76,0.00,,,0.00,weatherlink.com 1.10,2013-03-04 12:38:00,
2013-03-04 05:53:00,56.1,49.0,29.71,SSE,147,8.0,14.0,77,0.00,,,0.00,weatherlink.com 1.10,2013-03-04 12:53:00,
2013-03-04 06:08:00,56.4,50.0,29.70,SE,133,8.0,16.0,78,0.00,,,0.00,weatherlink.com 1.10,2013-03-04 13:08:00,
2013-03-04 06:23:00,56.8,50.0,29.70,SE,140,7.0,15.0,78,0.00,,,0.00,weatherlink.com 1.10,2013-03-04 13:23:00,
2013-03-04 06:38:00,57.1,50.0,29.71,SSW,207,6.0,15.0,78,0.00,,,0.00,weatherlink.com 1.10,2013-03-04 13:38:00,
2013-03-04 06:53:00,57.3,51.0,29.69,SE,135,10.0,16.0,78,0.00,,,0.00,weatherlink.com 1.10,2013-03-04 13:53:00,
2013-03-04 07:08:00,57.6,51.0,29.69,SSE,148,13.0,19.0,78,0.00,,,0.00,weatherlink.com 1.10,2013-03-04 14:08:00,
2013-03-04 07:23:00,57.8,51.0,29.70,SE,134,11.0,18.0,78,0.00,,,0.00,weatherlink.com 1.10,2013-03-04 14:23:00,
2013-03-04 07:38:00,58.2,51.0,29.70,ESE,121,10.0,17.0,78,0.00,,,0.00,weatherlink.com 1.10,2013-03-04 14:38:00,
2013-03-04 07:53:00,60.0,52.0,29.70,SSE,155,6.0,16.0,75,0.00,,,0.00,weatherlink.com 1.10,2013-03-04 14:53:00,
2013-03-04 08:08:00,61.1,52.0,29.69,SE,146,7.0,16.0,73,0.00,,,0.00,weatherlink.com 1.10,2013-03-04 15:08:00,
2013-03-04 08:23:00,61.7,52.0,29.68,SSE,153,9.0,24.0,70,0.00,,,0.00,weatherlink.com 1.10,2013-03-04 15:23:00,
2013-03-04 08:38:00,62.5,53.0,29.68,SSE,148,6.0,16.0,70,0.00,,,0.00,weatherlink.com 1.10,2013-03-04 15:38:00,
2013-03-04 08:53:00,63.3,53.0,29.68,South,187,7.0,16.0,68,0.00,,,0.00,weatherlink.com 1.10,2013-03-04 15:53:00,
2013-03-04 09:08:00,64.3,52.0,29.68,SE,131,16.0,20.0,64,0.00,,,0.00,weatherlink.com 1.10,2013-03-04 16:08:00,
2013-03-04 09:23:00,66.3,52.0,29.67,SW,217,11.0,-999.0,60,-99.99,,,0.00,weatherlink.com 1.10,2013-03-04 16:23:00,
2013-03-04 09:38:00,66.5,52.0,29.68,SE,134,13.0,16.0,59,0.00,,,0.00,weatherlink.com 1.10,2013-03-04 16:38:00,
2013-03-04 09:53:00,67.1,52.0,29.67,SW,229,16.0,17.0,58,0.00,,,0.00,weatherlink.com 1.10,2013-03-04 16:53:00,
2013-03-04 10:08:00,66.1,51.0,29.67,South,181,11.0,18.0,58,0.00,,,0.00,weatherlink.com 1.10,2013-03-04 17:08:00,
2013-03-04 10:23:00,66.3,51.0,29.68,SSE,152,6.0,13.0,59,0.00,,,0.00,weatherlink.com 1.10,2013-03-04 17:23:00,
2013-03-04 10:38:00,67.9,52.0,29.67,SE,146,6.0,12.0,58,0.00,,,0.00,weatherlink.com 1.10,2013-03-04 17:38:00,
2013-03-04 10:54:00,70.6,52.0,29.66,SSE,149,12.0,16.0,52,0.00,,,0.00,weatherlink.com 1.10,2013-03-04 17:54:00,
2013-03-04 11:09:00,70.9,52.0,29.65,SSE,155,3.0,11.0,52,0.00,,,0.00,weatherlink.com 1.10,2013-03-04 18:09:00,
2013-03-04 11:24:00,71.8,50.0,29.65,SSW,193,6.0,17.0,47,0.00,,,0.00,weatherlink.com 1.10,2013-03-04 18:24:00,
2013-03-04 11:39:00,73.7,52.0,29.64,SSE,150,10.0,15.0,46,0.00,,,0.00,weatherlink.com 1.10,2013-03-04 18:39:00,
2013-03-04 11:54:00,72.4,51.0,29.63,SSE,165,8.0,16.0,48,0.00,,,0.00,weatherlink.com 1.10,2013-03-04 18:54:00,
2013-03-04 12:09:00,73.3,52.0,29.62,SE,136,8.0,15.0,47,0.00,,,0.00,weatherlink.com 1.10,2013-03-04 19:09:00,
2013-03-04 12:24:00,75.0,52.0,29.60,SSW,209,10.0,14.0,45,0.00,,,0.00,weatherlink.com 1.10,2013-03-04 19:24:00,
2013-03-04 12:39:00,75.2,52.0,29.60,SW,221,7.0,15.0,45,0.00,,,0.00,weatherlink.com 1.10,2013-03-04 19:39:00,
2013-03-04 12:54:00,76.5,52.0,29.60,SE,133,6.0,12.0,43,0.00,,,0.00,weatherlink.com 1.10,2013-03-04 19:54:00,
2013-03-04 13:09:00,76.7,52.0,29.59,SSE,152,5.0,12.0,42,0.00,,,0.00,weatherlink.com 1.10,2013-03-04 20:09:00,
2013-03-04 13:24:00,76.4,52.0,29.59,SSW,208,6.0,15.0,42,0.00,,,0.00,weatherlink.com 1.10,2013-03-04 20:24:00,
2013-03-04 13:39:00,76.5,54.0,29.59,SSW,194,4.0,12.0,45,0.00,,,0.00,weatherlink.com 1.10,2013-03-04 20:39:00,
2013-03-04 13:54:00,76.7,52.0,29.59,SE,146,6.0,17.0,43,0.00,,,0.00,weatherlink.com 1.10,2013-03-04 20:54:00,
2013-03-04 14:09:00,76.9,53.0,29.59,SE,139,9.0,16.0,44,0.00,,,0.00,weatherlink.com 1.10,2013-03-04 21:09:00,
2013-03-04 14:24:00,76.8,53.0,29.58,SE,142,8.0,16.0,44,0.00,,,0.00,weatherlink.com 1.10,2013-03-04 21:24:00,
2013-03-04 14:39:00,76.9,53.0,29.58,South,172,6.0,13.0,43,0.00,,,0.00,weatherlink.com 1.10,2013-03-04 21:39:00,
2013-03-04 14:54:00,76.9,53.0,29.58,SE,135,11.0,16.0,43,0.00,,,0.00,weatherlink.com 1.10,2013-03-04 21:54:00,
2013-03-04 15:09:00,76.4,53.0,29.57,SSE,163,6.0,12.0,44,0.00,,,0.00,weatherlink.com 1.10,2013-03-04 22:09:00,
2013-03-04 15:24:00,75.6,52.0,29.58,SE,134,6.0,13.0,44,0.00,,,0.00,weatherlink.com 1.10,2013-03-04 22:24:00,
2013-03-04 15:39:00,74.6,52.0,29.58,SE,128,6.0,15.0,46,0.00,,,0.00,weatherlink.com 1.10,2013-03-04 22:39:00,
2013-03-04 15:54:00,75.3,53.0,29.58,SE,131,4.0,13.0,46,0.00,,,0.00,weatherlink.com 1.10,2013-03-04 22:54:00,
2013-03-04 16:10:00,74.9,53.0,29.58,SE,129,4.0,11.0,46,0.00,,,0.00,weatherlink.com 1.10,2013-03-04 23:10:00,
2013-03-04 16:25:00,75.2,52.0,29.59,SSW,201,5.0,13.0,44,0.00,,,0.00,weatherlink.com 1.10,2013-03-04 23:25:00,
2013-03-04 16:40:00,74.9,52.0,29.59,SW,231,6.0,12.0,45,0.00,,,0.00,weatherlink.com 1.10,2013-03-04 23:40:00,
2013-03-04 16:55:00,73.8,52.0,29.59,SE,142,7.0,10.0,46,0.00,,,0.00,weatherlink.com 1.10,2013-03-04 23:55:00,
2013-03-04 17:10:00,72.7,52.0,29.59,SE,131,4.0,8.0,48,0.00,,,0.00,weatherlink.com 1.10,2013-03-05 00:10:00,
2013-03-04 17:25:00,71.6,51.0,29.59,SE,142,5.0,8.0,49,0.00,,,0.00,weatherlink.com 1.10,2013-03-05 00:25:00,
2013-03-04 17:40:00,71.0,51.0,29.59,SE,138,3.0,9.0,50,0.00,,,0.00,weatherlink.com 1.10,2013-03-05 00:40:00,
2013-03-04 17:55:00,70.6,51.0,29.59,SE,137,4.0,9.0,50,0.00,,,0.00,weatherlink.com 1.10,2013-03-05 00:55:00,
2013-03-04 18:10:00,70.1,51.0,29.59,SSE,153,4.0,7.0,51,0.00,,,0.00,weatherlink.com 1.10,2013-03-05 01:10:00,
2013-03-04 18:25:00,69.8,51.0,29.59,SE,136,4.0,7.0,52,0.00,,,0.00,weatherlink.com 1.10,2013-03-05 01:25:00,
2013-03-04 18:40:00,70.1,52.0,29.59,SSE,156,4.0,8.0,52,0.00,,,0.00,weatherlink.com 1.10,2013-03-05 01:40:00,
2013-03-04 18:54:00,69.9,51.0,29.59,SE,125,5.0,8.0,52,0.00,,,0.00,weatherlink.com 1.10,2013-03-05 01:54:00,
2013-03-04 19:09:00,68.9,51.0,29.59,SE,134,4.0,11.0,54,0.00,,,0.00,weatherlink.com 1.10,2013-03-05 02:09:00,
2013-03-04 19:26:00,68.7,51.0,29.60,SE,132,5.0,9.0,54,0.00,,,0.00,weatherlink.com 1.10,2013-03-05 02:26:00,
2013-03-04 19:39:00,69.2,51.0,29.60,SE,124,6.0,8.0,53,0.00,,,0.00,weatherlink.com 1.10,2013-03-05 02:39:00,
2013-03-04 19:54:00,70.0,52.0,29.61,SE,124,6.0,10.0,53,0.00,,,0.00,weatherlink.com 1.10,2013-03-05 02:54:00,
2013-03-04 20:09:00,70.0,52.0,29.61,SSE,153,5.0,11.0,53,0.00,,,0.00,weatherlink.com 1.10,2013-03-05 03:09:00,
2013-03-04 20:24:00,70.0,53.0,29.62,SE,145,7.0,13.0,55,0.00,,,0.00,weatherlink.com 1.10,2013-03-05 03:24:00,
2013-03-04 20:39:00,69.8,54.0,29.62,SE,143,7.0,13.0,57,0.00,,,0.00,weatherlink.com 1.10,2013-03-05 03:39:00,
2013-03-04 20:54:00,69.5,55.0,29.62,ESE,114,6.0,16.0,60,0.00,,,0.00,weatherlink.com 1.10,2013-03-05 03:54:00,
2013-03-04 21:09:00,69.0,55.0,29.62,ESE,110,10.0,12.0,62,0.00,,,0.00,weatherlink.com 1.10,2013-03-05 04:09:00,
2013-03-04 21:24:00,68.6,56.0,29.62,SE,130,7.0,16.0,64,0.00,,,0.00,weatherlink.com 1.10,2013-03-05 04:24:00,
2013-03-04 21:39:00,68.3,56.0,29.62,ESE,117,7.0,16.0,66,0.00,,,0.00,weatherlink.com 1.10,2013-03-05 04:39:00,
2013-03-04 21:55:00,67.9,56.0,29.62,SSE,149,5.0,12.0,67,0.00,,,0.00,weatherlink.com 1.10,2013-03-05 04:55:00,
2013-03-04 22:10:00,67.3,57.0,29.63,ESE,121,8.0,12.0,69,0.00,,,0.00,weatherlink.com 1.10,2013-03-05 05:10:00,
2013-03-04 22:25:00,66.8,57.0,29.64,SSE,152,2.0,9.0,71,0.00,,,0.00,weatherlink.com 1.10,2013-03-05 05:25:00,
2013-03-04 22:40:00,66.4,57.0,29.64,SE,131,5.0,9.0,72,0.00,,,0.00,weatherlink.com 1.10,2013-03-05 05:40:00,
2013-03-04 22:55:00,65.6,58.0,29.65,SSE,147,4.0,6.0,75,0.00,,,0.00,weatherlink.com 1.10,2013-03-05 05:55:00,
2013-03-04 23:10:00,63.7,56.0,29.71,WNW,282,1.0,11.0,75,0.00,,,0.00,weatherlink.com 1.10,2013-03-05 06:10:00,
2013-03-04 23:25:00,62.2,55.0,29.71,WNW,293,1.0,5.0,78,0.00,,,0.00,weatherlink.com 1.10,2013-03-05 06:25:00,
2013-03-04 23:40:00,60.9,54.0,29.72,West,271,0.0,1.0,79,0.00,,,0.00,weatherlink.com 1.10,2013-03-05 06:40:00,
2013-03-04 23:55:00,61.3,55.0,29.72,ESE,104,0.0,2.0,80,0.00,,,0.00,weatherlink.com 1.10,2013-03-05 06:55:00,